Time;durP1;ratioP1;P1;durP2;ratioP2;P2;SDS_P1;SDS_P2;PMS_P1;PMS_P2;Temp;Humidity;BMP_temperature;BMP_pressure;BME280_temperature;BME280_humidity;BME280_pressure;Samples;Min_cycle;Max_cycle;Signal;HPM_P1;HPM_P2
2022/08/23 00:02:47;;;;;;;0.60;0.60;;;17.10;99.90;18.20;96435.00;;;;5054203;28;20219;-73
2022/08/23 00:05:36;;;;;;;1.30;1.20;;;17.10;99.90;18.20;96427.00;;;;5054477;28;20199;-73
2022/08/23 00:08:25;;;;;;;1.10;1.00;;;17.00;99.90;18.30;96437.00;;;;5056346;28;20197;-73
2022/08/23 00:11:26;;;;;;;1.67;0.67;;;17.00;99.90;18.20;96429.00;;;;5062222;28;20228;-73
2022/08/23 00:14:21;;;;;;;1.23;0.60;;;17.00;99.90;18.30;96428.00;;;;5045152;28;20569;-73
2022/08/23 00:17:10;;;;;;;1.20;0.93;;;16.90;99.90;18.20;96427.00;;;;5057303;28;20205;-73
2022/08/23 00:20:01;;;;;;;0.90;0.60;;;16.90;99.90;18.30;96434.00;;;;5050257;28;20203;-73
2022/08/23 00:22:50;;;;;;;0.70;0.70;;;16.90;99.90;18.40;96427.00;;;;5049458;28;20231;-73
2022/08/23 00:25:39;;;;;;;1.50;0.75;;;17.00;99.90;18.00;96434.00;;;;5054909;28;20399;-73
2022/08/23 00:28:28;;;;;;;3.90;0.80;;;16.90;99.90;17.90;96429.00;;;;5051407;28;20201;-73
2022/08/23 00:31:17;;;;;;;1.70;0.73;;;16.90;99.90;18.00;96426.00;;;;5055748;28;20207;-73
2022/08/23 00:34:06;;;;;;;0.67;0.67;;;16.80;99.90;18.20;96438.00;;;;5050433;28;20722;-73
2022/08/23 00:36:57;;;;;;;0.97;0.70;;;16.80;99.90;18.20;96441.00;;;;5053987;28;20193;-73
2022/08/23 00:39:46;;;;;;;0.80;0.70;;;16.80;99.90;18.30;96435.00;;;;5061094;28;20208;-73
2022/08/23 00:49:04;;;;;;;1.00;0.83;;;16.80;99.90;17.80;96431.00;;;;5053228;28;20219;-73
2022/08/23 00:52:01;;;;;;;0.77;0.73;;;16.80;99.90;17.90;96440.00;;;;5059020;28;20219;-73
2022/08/23 00:54:52;;;;;;;3.73;0.77;;;16.70;99.90;18.00;96433.00;;;;5050785;28;20676;-73
2022/08/23 00:57:41;;;;;;;1.13;0.70;;;16.70;99.90;18.10;96437.00;;;;5056900;28;20572;-73
2022/08/23 01:00:31;;;;;;;1.13;0.83;;;16.70;99.90;17.90;96437.00;;;;5043107;28;20199;-73
2022/08/23 01:03:22;;;;;;;2.00;0.70;;;16.70;99.90;17.90;96440.00;;;;5050164;28;20218;-73
2022/08/23 01:06:15;;;;;;;1.03;0.67;;;16.60;99.90;17.80;96449.00;;;;5062139;28;20204;-73
2022/08/23 01:09:12;;;;;;;2.30;0.77;;;16.60;99.90;17.80;96444.00;;;;5056515;28;20200;-73
2022/08/23 01:12:09;;;;;;;0.83;0.83;;;16.60;99.90;17.70;96446.00;;;;5047939;28;20220;-73
2022/08/23 01:15:01;;;;;;;1.10;0.80;;;16.60;99.90;18.00;96451.00;;;;5056316;28;20197;-73
2022/08/23 01:17:55;;;;;;;0.67;0.63;;;16.60;99.90;17.90;96450.00;;;;5063715;28;20192;-73
2022/08/23 01:20:50;;;;;;;0.70;0.60;;;16.60;99.90;17.80;96455.00;;;;5057032;28;20574;-73
2022/08/23 01:23:44;;;;;;;1.47;0.80;;;16.60;99.90;18.00;96459.00;;;;5072467;22;20228;-70
2022/08/23 01:26:34;;;;;;;1.23;1.10;;;16.60;99.90;17.80;96457.00;;;;5038613;28;20197;-70
2022/08/23 01:29:23;;;;;;;2.50;1.40;;;16.60;99.90;18.00;96458.00;;;;5047577;28;20196;-70
2022/08/23 01:32:13;;;;;;;1.20;0.60;;;16.60;99.90;18.10;96464.00;;;;5041586;28;20215;-70
2022/08/23 01:35:02;;;;;;;2.77;0.97;;;16.60;99.90;18.10;96465.00;;;;5054457;28;20212;-70
2022/08/23 01:37:51;;;;;;;1.13;1.00;;;16.60;99.90;17.90;96467.00;;;;5061850;28;20196;-69
2022/08/23 01:40:43;;;;;;;1.20;1.00;;;16.60;99.90;17.60;96472.00;;;;5061288;28;20201;-70
2022/08/23 01:43:33;;;;;;;1.30;1.10;;;16.50;99.90;17.50;96460.00;;;;5059919;28;20215;-71
2022/08/23 01:46:24;;;;;;;1.47;1.00;;;16.50;99.90;17.30;96461.00;;;;5062955;28;20192;-70
2022/08/23 01:49:14;;;;;;;0.80;0.80;;;16.40;99.90;17.10;96469.00;;;;5057978;28;20196;-71
2022/08/23 01:52:03;;;;;;;1.10;1.10;;;16.30;99.90;17.10;96465.00;;;;5049297;28;20800;-70
2022/08/23 01:54:52;;;;;;;1.43;0.90;;;16.20;99.90;17.30;96475.00;;;;5064097;28;20202;-70
2022/08/23 01:57:45;;;;;;;1.77;1.20;;;16.10;99.90;17.20;96472.00;;;;5061532;28;20582;-70
2022/08/23 02:00:43;;;;;;;0.77;0.70;;;16.10;99.90;17.30;96473.00;;;;5064391;28;20203;-70
2022/08/23 02:03:33;;;;;;;0.80;0.80;;;16.10;99.90;17.50;96473.00;;;;5058386;28;20740;-70
2022/08/23 02:06:22;;;;;;;0.90;0.90;;;16.10;99.90;17.50;96471.00;;;;5049792;28;20566;-70
2022/08/23 02:09:11;;;;;;;1.30;0.70;;;16.10;99.90;17.30;96479.00;;;;5055985;28;20209;-71
2022/08/23 02:12:00;;;;;;;2.47;1.03;;;16.10;99.90;17.40;96477.00;;;;5053593;28;20228;-71
2022/08/23 02:14:50;;;;;;;0.80;0.80;;;16.10;99.90;17.60;96476.00;;;;5059484;28;20189;-70
2022/08/23 02:17:39;;;;;;;1.10;1.00;;;16.10;99.90;17.50;96473.00;;;;5057246;28;20208;-70
2022/08/23 02:20:27;;;;;;;0.90;0.90;;;16.20;99.90;17.50;96469.00;;;;5054937;28;20196;-71
2022/08/23 02:23:17;;;;;;;2.30;0.70;;;16.10;99.90;17.50;96471.00;;;;5048814;28;20232;-71
2022/08/23 02:26:06;;;;;;;0.73;0.73;;;16.10;99.90;17.50;96472.00;;;;5055485;28;20216;-70
2022/08/23 02:28:55;;;;;;;1.07;0.97;;;16.10;99.90;17.40;96473.00;;;;5055587;28;20210;-70
2022/08/23 02:31:45;;;;;;;1.03;0.90;;;16.10;99.90;17.50;96489.00;;;;5049483;28;20196;-71
2022/08/23 02:34:35;;;;;;;0.93;0.93;;;16.10;99.90;17.40;96484.00;;;;5056967;28;20192;-71
2022/08/23 02:37:24;;;;;;;1.20;1.10;;;16.10;99.90;17.40;96478.00;;;;5060538;28;20204;-71
2022/08/23 02:40:12;;;;;;;2.00;1.00;;;16.10;99.90;17.40;96484.00;;;;5062080;28;20192;-70
2022/08/23 02:43:01;;;;;;;1.17;1.07;;;16.10;99.90;17.40;96480.00;;;;5050358;28;20217;-70
2022/08/23 02:45:51;;;;;;;1.10;1.00;;;16.00;99.90;17.30;96485.00;;;;5055025;28;20870;-70
2022/08/23 02:48:42;;;;;;;1.23;1.10;;;16.00;99.90;17.00;96488.00;;;;5057357;28;20192;-71
2022/08/23 02:51:31;;;;;;;1.10;0.90;;;16.00;99.90;17.00;96500.00;;;;5059748;28;20204;-70
2022/08/23 02:54:20;;;;;;;1.00;1.00;;;15.90;99.90;17.10;96499.00;;;;5064051;28;20211;-70
2022/08/23 02:57:09;;;;;;;0.67;0.63;;;15.90;99.90;16.90;96505.00;;;;5051455;28;20694;-70
2022/08/23 02:59:57;;;;;;;1.30;1.20;;;15.80;99.90;17.00;96507.00;;;;5049700;28;20192;-70
2022/08/23 03:02:47;;;;;;;1.80;1.17;;;15.80;99.90;17.10;96515.00;;;;5053226;28;20216;-70
2022/08/23 03:05:37;;;;;;;3.97;1.00;;;15.80;99.90;17.20;96513.00;;;;5050801;28;20227;-70
2022/08/23 03:08:26;;;;;;;0.87;0.87;;;15.80;99.90;17.30;96516.00;;;;5052786;28;20192;-70
2022/08/23 03:11:19;;;;;;;2.37;1.40;;;15.80;99.90;17.30;96516.00;;;;5056700;28;20200;-70
2022/08/23 03:14:08;;;;;;;1.00;0.90;;;15.80;99.90;17.30;96517.00;;;;5055784;28;20197;-70
2022/08/23 03:16:57;;;;;;;0.97;0.97;;;15.80;99.90;17.10;96520.00;;;;5061661;28;20204;-70
2022/08/23 03:19:47;;;;;;;1.47;1.37;;;15.90;99.90;17.00;96507.00;;;;5065328;28;20192;-70
2022/08/23 03:22:37;;;;;;;1.00;1.00;;;15.90;99.90;17.20;96520.00;;;;5054165;28;20236;-70
2022/08/23 03:25:26;;;;;;;1.30;1.20;;;15.80;99.90;17.10;96524.00;;;;5062845;28;20224;-70
2022/08/23 03:28:15;;;;;;;1.60;1.10;;;15.90;99.90;17.20;96518.00;;;;5061890;28;20204;-71
2022/08/23 03:31:05;;;;;;;3.00;1.13;;;15.80;99.90;17.00;96517.00;;;;5059413;28;20195;-70
2022/08/23 03:33:54;;;;;;;1.03;0.80;;;15.80;99.90;17.10;96533.00;;;;5064060;28;20228;-70
2022/08/23 03:36:42;;;;;;;1.17;1.00;;;15.80;99.90;16.90;96520.00;;;;5051577;28;20246;-70
2022/08/23 03:39:33;;;;;;;1.57;1.00;;;15.80;99.90;16.80;96526.00;;;;5058785;28;20196;-70
2022/08/23 03:42:22;;;;;;;1.10;0.87;;;15.70;99.90;16.60;96535.00;;;;5046146;28;20209;-71
2022/08/23 03:45:11;;;;;;;2.23;1.30;;;15.70;99.90;16.70;96534.00;;;;5056122;28;20220;-70
2022/08/23 03:48:00;;;;;;;0.97;0.83;;;15.60;99.90;16.90;96529.00;;;;5064626;28;21022;-70
2022/08/23 03:50:49;;;;;;;0.90;0.80;;;15.60;99.90;16.90;96541.00;;;;5063652;28;20226;-70
2022/08/23 03:53:37;;;;;;;0.70;0.70;;;15.50;99.90;16.80;96542.00;;;;5064812;28;20230;-70
2022/08/23 03:56:30;;;;;;;0.77;0.70;;;15.50;99.90;16.90;96549.00;;;;5058878;28;20200;-70
2022/08/23 03:59:19;;;;;;;0.90;0.90;;;15.50;99.90;16.90;96544.00;;;;5061763;28;20685;-70
2022/08/23 04:02:09;;;;;;;2.33;1.00;;;15.60;99.90;17.00;96550.00;;;;5055496;28;20630;-70
2022/08/23 04:04:58;;;;;;;1.17;0.97;;;15.60;99.90;16.80;96557.00;;;;5055485;28;20293;-70
2022/08/23 04:07:47;;;;;;;2.27;0.90;;;15.60;99.90;16.90;96559.00;;;;5060759;28;20189;-70
2022/08/23 04:10:37;;;;;;;0.80;0.80;;;15.60;99.90;16.90;96560.00;;;;5050818;28;20413;-70
2022/08/23 04:13:28;;;;;;;0.60;0.60;;;15.60;99.90;16.90;96557.00;;;;5063120;28;20216;-70
2022/08/23 04:16:17;;;;;;;2.00;0.83;;;15.60;99.90;16.90;96560.00;;;;5051160;28;20204;-70
2022/08/23 04:19:08;;;;;;;0.83;0.80;;;15.60;99.90;16.90;96568.00;;;;5054506;28;20199;-70
2022/08/23 04:21:57;;;;;;;1.20;0.87;;;15.60;99.90;16.90;96566.00;;;;5058622;28;20246;-70
2022/08/23 04:24:47;;;;;;;1.00;0.90;;;15.60;99.90;16.90;96575.00;;;;5067852;28;20197;-70
2022/08/23 04:27:36;;;;;;;0.60;0.60;;;15.60;99.90;16.80;96578.00;;;;5061761;28;20203;-70
2022/08/23 04:30:26;;;;;;;1.07;0.93;;;15.60;99.90;16.80;96578.00;;;;5064030;28;20205;-70
2022/08/23 04:33:16;;;;;;;0.63;0.63;;;15.50;99.90;16.80;96584.00;;;;5055044;28;20690;-70
2022/08/23 04:36:06;;;;;;;0.80;0.60;;;15.50;99.90;16.80;96580.00;;;;5050671;28;20200;-70
2022/08/23 04:38:55;;;;;;;0.90;0.80;;;15.50;99.90;16.80;96588.00;;;;5051155;28;20207;-70
2022/08/23 04:44:50;;;;;;;1.40;0.97;;;15.50;99.90;16.70;96596.00;;;;5054832;28;20207;-70
2022/08/23 04:47:43;;;;;;;0.67;0.63;;;15.50;99.90;16.80;96597.00;;;;5051661;28;20216;-70
2022/08/23 04:50:32;;;;;;;1.20;0.83;;;15.50;99.90;16.90;96597.00;;;;5054739;28;20211;-70
2022/08/23 04:53:21;;;;;;;0.60;0.60;;;15.50;99.90;16.90;96604.00;;;;5067254;28;20235;-70
2022/08/23 04:56:10;;;;;;;0.80;0.80;;;15.50;99.90;16.90;96607.00;;;;5065840;28;20204;-70
2022/08/23 04:58:59;;;;;;;1.33;0.67;;;15.50;99.90;16.90;96613.00;;;;5049658;28;20201;-70
2022/08/23 05:01:48;;;;;;;1.80;1.17;;;15.60;99.90;16.80;96612.00;;;;5049621;28;20204;-70
2022/08/23 05:04:38;;;;;;;2.10;1.23;;;15.50;99.90;16.60;96605.00;;;;5058858;28;20193;-70
2022/08/23 05:07:28;;;;;;;0.77;0.77;;;15.50;99.90;16.70;96620.00;;;;5053730;28;20220;-70
2022/08/23 05:10:17;;;;;;;1.20;1.10;;;15.50;99.90;16.60;96616.00;;;;5058844;28;20226;-70
2022/08/23 05:13:06;;;;;;;1.30;1.00;;;15.50;99.90;16.60;96618.00;;;;5056758;28;20235;-70
2022/08/23 05:15:54;;;;;;;3.37;0.97;;;15.50;99.90;16.40;96623.00;;;;5065002;28;20196;-70
2022/08/23 05:18:43;;;;;;;3.17;1.23;;;15.40;99.90;16.80;96627.00;;;;5052465;28;20199;-70
2022/08/23 05:21:34;;;;;;;1.17;1.07;;;15.40;99.90;16.80;96638.00;;;;5062258;28;20195;-70
2022/08/23 05:24:22;;;;;;;1.13;0.90;;;15.40;99.90;16.80;96638.00;;;;5054137;28;20203;-70
2022/08/23 05:27:11;;;;;;;0.90;0.77;;;15.40;99.90;16.90;96634.00;;;;5055283;28;20220;-70
2022/08/23 05:30:01;;;;;;;1.67;1.27;;;15.50;99.90;16.90;96639.00;;;;5054828;28;20208;-70
2022/08/23 05:32:50;;;;;;;2.03;0.97;;;15.50;99.90;16.90;96645.00;;;;5050087;28;20216;-70
2022/08/23 05:35:39;;;;;;;1.13;0.97;;;15.50;99.90;16.90;96648.00;;;;5050475;28;20204;-70
2022/08/23 05:38:30;;;;;;;2.77;1.27;;;15.60;99.90;16.90;96648.00;;;;5056945;28;20204;-70
2022/08/23 05:41:19;;;;;;;1.30;0.77;;;15.60;99.90;16.90;96646.00;;;;5055047;28;20204;-70
2022/08/23 05:44:10;;;;;;;3.33;0.70;;;15.60;99.90;16.80;96652.00;;;;5047449;28;21045;-72
2022/08/23 05:46:59;;;;;;;1.00;0.83;;;15.60;99.90;16.50;96648.00;;;;5066108;28;20238;-71
2022/08/23 05:49:47;;;;;;;0.90;0.70;;;15.50;99.90;16.80;96656.00;;;;5067704;28;20575;-70
2022/08/23 05:52:37;;;;;;;1.80;1.00;;;15.50;99.90;16.70;96658.00;;;;5053073;28;20224;-71
2022/08/23 05:55:27;;;;;;;2.30;0.80;;;15.50;99.90;16.80;96660.00;;;;5047682;28;20196;-70
2022/08/23 05:58:16;;;;;;;1.70;0.90;;;15.50;99.90;16.90;96657.00;;;;5061010;28;20197;-70
2022/08/23 06:01:05;;;;;;;2.23;0.90;;;15.50;99.90;17.10;96659.00;;;;5059468;28;20204;-71
2022/08/23 06:03:54;;;;;;;1.50;0.97;;;15.60;99.90;16.80;96659.00;;;;5063896;28;20233;-70
2022/08/23 06:06:44;;;;;;;1.37;0.87;;;15.60;99.90;16.90;96662.00;;;;5056694;28;20724;-72
2022/08/23 06:09:33;;;;;;;1.13;0.70;;;15.60;99.90;16.90;96663.00;;;;5059183;28;20196;-71
2022/08/23 06:12:24;;;;;;;1.37;1.10;;;15.60;99.90;17.10;96660.00;;;;5053326;28;20227;-70
2022/08/23 06:15:12;;;;;;;2.90;0.87;;;15.70;99.90;17.10;96663.00;;;;5058358;28;20205;-70
2022/08/23 06:18:01;;;;;;;2.30;1.40;;;15.70;99.90;17.30;96667.00;;;;5064865;28;20204;-70
2022/08/23 06:21:01;;;;;;;1.17;0.87;;;15.80;99.90;17.40;96663.00;;;;5047850;28;20208;-70
2022/08/23 06:23:50;;;;;;;2.60;1.30;;;15.90;99.90;17.20;96663.00;;;;5048686;28;20228;-70
2022/08/23 06:26:43;;;;;;;1.77;1.00;;;15.90;99.90;17.00;96664.00;;;;5054382;28;20208;-70
2022/08/23 06:29:33;;;;;;;2.27;1.63;;;15.90;99.90;17.10;96663.00;;;;5051749;28;20229;-70
2022/08/23 06:32:22;;;;;;;1.23;0.90;;;15.90;99.90;17.40;96660.00;;;;5044799;28;20228;-70
2022/08/23 06:35:11;;;;;;;2.40;0.97;;;16.00;99.90;17.50;96667.00;;;;5057477;28;20254;-70
2022/08/23 06:38:02;;;;;;;1.60;1.10;;;16.00;99.90;17.50;96669.00;;;;5061242;28;20707;-71
2022/08/23 06:40:51;;;;;;;2.50;0.97;;;16.10;99.90;17.50;96671.00;;;;5054918;28;20205;-70
2022/08/23 06:43:40;;;;;;;4.80;1.10;;;16.20;99.90;17.60;96673.00;;;;5049438;28;20233;-70
2022/08/23 06:46:31;;;;;;;2.20;0.87;;;16.20;99.90;17.80;96670.00;;;;5058621;28;20214;-71
2022/08/23 06:49:20;;;;;;;1.30;1.07;;;16.30;99.90;17.60;96674.00;;;;5058217;28;20204;-71
2022/08/23 06:52:09;;;;;;;2.97;1.20;;;16.30;99.90;17.80;96679.00;;;;5054878;28;20234;-70
2022/08/23 06:54:58;;;;;;;2.57;0.97;;;16.40;99.90;17.50;96669.00;;;;5055838;28;20205;-71
2022/08/23 06:57:47;;;;;;;2.33;1.27;;;16.40;99.90;17.70;96673.00;;;;5060304;28;20196;-71
2022/08/23 07:00:36;;;;;;;1.40;1.00;;;16.40;99.90;18.00;96668.00;;;;5057208;28;20692;-71
2022/08/23 07:03:26;;;;;;;2.03;0.77;;;16.50;99.90;18.00;96669.00;;;;5064051;28;20223;-71
2022/08/23 07:06:15;;;;;;;1.80;1.03;;;16.60;99.90;18.20;96676.00;;;;5067327;28;20207;-70
2022/08/23 07:09:05;;;;;;;4.00;1.00;;;16.70;99.90;18.40;96677.00;;;;5060548;28;20222;-70
2022/08/23 07:11:54;;;;;;;0.80;0.80;;;16.80;99.90;18.50;96683.00;;;;5058434;28;20228;-70
2022/08/23 07:14:43;;;;;;;0.70;0.70;;;16.90;99.90;18.70;96688.00;;;;5058262;28;20242;-71
2022/08/23 07:17:32;;;;;;;1.63;0.73;;;17.00;99.90;18.50;96687.00;;;;5050544;28;20203;-70
2022/08/23 07:20:22;;;;;;;2.37;0.83;;;17.10;99.90;18.70;96692.00;;;;5063321;28;20448;-71
2022/08/23 07:23:11;;;;;;;4.20;0.80;;;17.20;99.90;18.80;96688.00;;;;5094178;22;20235;-72
2022/08/23 07:26:01;;;;;;;1.90;0.60;;;17.20;99.90;19.00;96691.00;;;;5073826;28;20204;-72
2022/08/23 07:28:50;;;;;;;0.57;0.50;;;17.40;99.90;19.00;96694.00;;;;5079825;28;20219;-72
2022/08/23 07:31:43;;;;;;;1.27;0.60;;;17.40;99.90;18.80;96688.00;;;;5077661;28;20587;-72
2022/08/23 07:34:32;;;;;;;1.47;0.60;;;17.50;99.90;19.10;96697.00;;;;5051320;28;20205;-72
2022/08/23 07:37:22;;;;;;;2.17;0.80;;;17.60;99.90;19.00;96693.00;;;;5054417;28;20204;-72
2022/08/23 07:40:12;;;;;;;1.10;0.83;;;17.60;99.90;19.20;96691.00;;;;5050992;28;20212;-72
2022/08/23 07:43:02;;;;;;;0.50;0.50;;;17.70;99.90;18.90;96690.00;;;;5054390;28;20229;-72
2022/08/23 07:45:50;;;;;;;1.30;0.60;;;17.70;99.90;19.30;96696.00;;;;5046575;28;20215;-72
2022/08/23 07:48:40;;;;;;;0.60;0.60;;;17.70;99.90;19.60;96700.00;;;;5051568;28;20217;-72
2022/08/23 07:51:45;;;;;;;1.87;0.73;;;17.80;99.90;19.50;96693.00;;;;5050563;28;20200;-72
2022/08/23 07:54:35;;;;;;;1.13;0.50;;;17.90;99.90;19.80;96692.00;;;;5064421;28;20204;-72
2022/08/23 07:57:24;;;;;;;4.03;0.60;;;18.00;99.90;19.90;96702.00;;;;5054039;28;20192;-72
2022/08/23 08:00:14;;;;;;;0.60;0.60;;;18.20;99.90;20.00;96699.00;;;;5056019;28;20627;-72
2022/08/23 08:03:03;;;;;;;0.77;0.50;;;18.30;99.90;20.00;96691.00;;;;5051593;28;20234;-72
2022/08/23 08:05:51;;;;;;;0.60;0.60;;;18.40;99.90;20.30;96695.00;;;;5053155;28;20211;-72
2022/08/23 08:08:41;;;;;;;0.47;0.47;;;18.50;99.90;20.30;96686.00;;;;5049918;28;20702;-72
2022/08/23 08:11:33;;;;;;;0.90;0.60;;;18.70;99.90;20.30;96697.00;;;;5048054;28;20192;-73
2022/08/23 08:14:23;;;;;;;0.60;0.60;;;18.80;99.90;20.60;96696.00;;;;5050059;28;20196;-72
2022/08/23 08:17:12;;;;;;;2.50;0.80;;;18.90;99.90;20.80;96701.00;;;;5052565;28;20207;-72
2022/08/23 08:20:00;;;;;;;0.80;0.50;;;19.00;99.90;21.00;96693.00;;;;5051255;28;20205;-72
2022/08/23 08:22:50;;;;;;;0.80;0.57;;;19.10;99.90;21.10;96692.00;;;;5050890;28;20232;-72
2022/08/23 08:25:38;;;;;;;2.17;0.50;;;19.30;99.90;21.20;96695.00;;;;5050399;28;20197;-72
2022/08/23 08:28:29;;;;;;;1.97;1.10;;;19.40;99.90;21.10;96686.00;;;;5057818;28;20576;-72
2022/08/23 08:31:17;;;;;;;0.70;0.70;;;19.50;99.90;21.20;96690.00;;;;5049777;28;20201;-72
2022/08/23 08:34:07;;;;;;;2.10;0.90;;;19.60;99.90;21.10;96690.00;;;;5049120;28;20213;-72
2022/08/23 08:36:58;;;;;;;0.70;0.60;;;19.60;99.90;21.10;96697.00;;;;5051554;28;20203;-72
2022/08/23 08:39:47;;;;;;;3.90;0.80;;;19.60;99.90;21.00;96694.00;;;;5053167;28;20211;-72
2022/08/23 08:43:07;;;;;;;0.77;0.60;;;19.60;99.90;20.90;96699.00;;;;5053118;28;20213;-72
2022/08/23 08:46:07;;;;;;;1.50;0.30;;;19.50;99.90;21.00;96696.00;;;;5054601;28;20203;-72
2022/08/23 08:49:03;;;;;;;1.67;0.80;;;19.50;99.90;21.10;96701.00;;;;5060027;28;20278;-72
2022/08/23 08:52:00;;;;;;;0.97;0.50;;;19.50;99.90;21.10;96696.00;;;;5049299;28;20646;-72
2022/08/23 08:54:56;;;;;;;0.90;0.40;;;19.60;99.90;21.30;96702.00;;;;5054684;28;20196;-72
2022/08/23 08:57:47;;;;;;;0.70;0.40;;;19.60;99.90;21.10;96699.00;;;;5048060;28;20260;-72
2022/08/23 09:00:38;;;;;;;0.63;0.50;;;19.70;99.90;21.30;96710.00;;;;5054757;28;20199;-72
2022/08/23 09:03:34;;;;;;;0.80;0.70;;;19.70;99.90;21.20;96705.00;;;;5065702;28;20216;-72
2022/08/23 09:06:28;;;;;;;0.70;0.50;;;19.70;99.90;21.20;96714.00;;;;5048350;28;20269;-72
2022/08/23 09:09:35;;;;;;;0.70;0.50;;;19.70;99.90;21.20;96709.00;;;;5048112;28;20228;-72
2022/08/23 09:12:42;;;;;;;1.33;0.70;;;19.70;99.90;21.00;96712.00;;;;5050008;28;20223;-72
2022/08/23 09:15:39;;;;;;;0.53;0.50;;;19.70;99.90;21.40;96717.00;;;;5057412;28;20200;-72
2022/08/23 09:18:35;;;;;;;0.87;0.57;;;19.70;99.90;21.10;96718.00;;;;5055742;28;20197;-72
2022/08/23 09:21:24;;;;;;;0.70;0.50;;;19.70;99.90;21.20;96721.00;;;;5052326;28;20210;-72
2022/08/23 09:24:14;;;;;;;3.07;2.13;;;19.70;99.90;21.30;96721.00;;;;5047072;28;20228;-72
2022/08/23 09:27:04;;;;;;;1.73;0.40;;;19.80;99.90;21.20;96728.00;;;;5048637;28;20201;-72
2022/08/23 09:29:57;;;;;;;0.50;0.50;;;19.70;99.90;21.20;96722.00;;;;5049274;28;20231;-72
2022/08/23 09:32:49;;;;;;;1.43;0.50;;;19.70;99.90;21.40;96725.00;;;;5060397;28;20231;-71
2022/08/23 09:35:39;;;;;;;2.07;0.50;;;19.80;99.90;21.10;96717.00;;;;5048757;28;20200;-72
2022/08/23 09:38:28;;;;;;;0.67;0.67;;;19.70;99.90;21.20;96721.00;;;;5057996;28;20608;-72
2022/08/23 09:41:22;;;;;;;0.77;0.57;;;19.70;99.90;21.00;96726.00;;;;5057649;28;20205;-72
2022/08/23 09:44:31;;;;;;;0.70;0.67;;;19.60;99.90;21.00;96726.00;;;;5045915;28;20703;-72
2022/08/23 09:47:22;;;;;;;1.50;0.63;;;19.60;99.90;21.00;96733.00;;;;5048442;28;20668;-71
2022/08/23 09:50:25;;;;;;;0.57;0.57;;;19.50;99.90;21.20;96728.00;;;;5049176;28;20201;-72
2022/08/23 09:53:25;;;;;;;1.40;1.30;;;19.50;99.90;21.30;96734.00;;;;5050682;28;20236;-71
2022/08/23 09:56:19;;;;;;;1.20;0.50;;;19.60;99.90;21.30;96721.00;;;;5047348;28;20199;-72
2022/08/23 09:59:32;;;;;;;1.13;0.77;;;19.70;99.90;21.60;96734.00;;;;5057600;28;20239;-72
2022/08/23 10:02:28;;;;;;;2.70;0.60;;;19.70;99.90;21.70;96739.00;;;;5059556;28;20226;-72
2022/08/23 10:05:20;;;;;;;0.80;0.60;;;19.90;99.90;21.50;96735.00;;;;5050055;28;20247;-72
2022/08/23 10:08:09;;;;;;;0.67;0.60;;;20.00;99.90;21.40;96742.00;;;;5049803;28;20303;-72
2022/08/23 10:11:11;;;;;;;0.60;0.60;;;20.00;99.90;21.50;96741.00;;;;5065453;28;20196;-72
2022/08/23 10:14:00;;;;;;;0.70;0.70;;;19.90;99.90;21.70;96751.00;;;;5061481;28;20220;-72
2022/08/23 10:17:03;;;;;;;2.83;0.77;;;20.00;99.90;21.70;96741.00;;;;5047516;28;20237;-72
2022/08/23 10:20:01;;;;;;;0.77;0.77;;;20.00;99.90;21.90;96751.00;;;;5062537;28;20200;-72
2022/08/23 10:22:58;;;;;;;0.97;0.80;;;20.10;99.90;22.10;96748.00;;;;5052484;28;20228;-72
2022/08/23 10:25:55;;;;;;;0.80;0.50;;;20.20;99.90;22.20;96766.00;;;;5048394;28;20196;-72
2022/08/23 10:32:17;;;;;;;2.83;1.00;;;20.40;99.90;22.10;96775.00;;;;5048967;28;20652;-72
2022/08/23 10:35:29;;;;;;;0.67;0.67;;;20.40;99.90;22.00;96786.00;;;;5049228;28;20201;-72
2022/08/23 10:38:36;;;;;;;0.77;0.70;;;20.40;99.90;21.80;96786.00;;;;5052972;28;20200;-72
2022/08/23 10:41:42;;;;;;;0.87;0.80;;;20.40;99.90;21.50;96793.00;;;;5048864;28;20196;-72
2022/08/23 10:44:39;;;;;;;0.63;0.60;;;20.30;99.90;20.90;96792.00;;;;5044831;28;20208;-73
2022/08/23 10:47:36;;;;;;;1.20;1.10;;;20.00;99.90;20.80;96792.00;;;;5051676;28;20588;-72
2022/08/23 10:50:28;;;;;;;1.00;0.90;;;19.80;99.90;20.70;96788.00;;;;5059181;28;20219;-73
2022/08/23 10:53:20;;;;;;;3.57;1.20;;;19.60;99.90;20.60;96789.00;;;;5049759;28;20213;-72
2022/08/23 10:56:15;;;;;;;3.13;0.93;;;19.40;99.90;20.40;96794.00;;;;5052321;28;20207;-73
2022/08/23 10:59:09;;;;;;;0.90;0.83;;;19.30;99.90;20.30;96792.00;;;;5048417;28;20204;-72
2022/08/23 11:02:08;;;;;;;1.00;1.00;;;19.10;99.90;20.20;96798.00;;;;5052984;28;20207;-73
2022/08/23 11:05:08;;;;;;;1.50;1.40;;;19.00;99.90;20.20;96795.00;;;;5055093;28;20208;-73
2022/08/23 11:08:01;;;;;;;1.63;1.17;;;18.90;99.90;20.30;96801.00;;;;5049841;28;20209;-73
2022/08/23 11:10:51;;;;;;;1.07;0.97;;;18.90;99.90;20.20;96804.00;;;;5056261;28;20196;-73
2022/08/23 11:13:51;;;;;;;4.57;1.10;;;18.90;99.90;20.20;96805.00;;;;5049909;28;20217;-73
2022/08/23 11:16:45;;;;;;;1.03;1.00;;;18.80;99.90;20.20;96811.00;;;;5049260;28;20196;-73
2022/08/23 11:19:51;;;;;;;2.27;1.43;;;18.80;99.90;20.00;96813.00;;;;5051673;28;20193;-73
2022/08/23 11:23:35;;;;;;;2.10;1.00;;;18.70;99.90;20.30;96829.00;;;;5054936;28;20227;-72
2022/08/23 11:27:05;;;;;;;1.53;1.37;;;18.70;99.90;20.30;96830.00;;;;5057578;28;20196;-73
2022/08/23 11:29:55;;;;;;;1.67;1.17;;;18.70;99.90;20.30;96834.00;;;;5052834;28;20336;-72
2022/08/23 11:32:45;;;;;;;1.40;1.20;;;18.70;99.90;20.30;96840.00;;;;5050758;28;20281;-72
2022/08/23 11:35:41;;;;;;;1.67;1.27;;;18.70;99.90;20.20;96843.00;;;;5056619;28;20707;-72
2022/08/23 11:39:04;;;;;;;2.33;1.10;;;18.80;99.90;20.20;96843.00;;;;5050585;28;20199;-72
2022/08/23 11:42:08;;;;;;;1.57;1.20;;;18.80;99.90;20.40;96839.00;;;;5049522;28;20197;-72
2022/08/23 11:44:57;;;;;;;1.43;1.13;;;18.80;99.90;20.50;96834.00;;;;5057846;28;20215;-72
2022/08/23 11:47:52;;;;;;;1.10;1.00;;;18.80;99.90;20.60;96839.00;;;;5055917;28;20196;-72
2022/08/23 11:51:14;;;;;;;2.03;1.43;;;18.90;99.90;20.80;96820.00;;;;5055166;28;20223;-73
2022/08/23 11:54:29;;;;;;;2.40;1.30;;;19.00;99.90;20.90;96825.00;;;;5058743;28;20227;-73
2022/08/23 11:57:35;;;;;;;1.60;1.00;;;19.10;99.90;21.10;96821.00;;;;5059171;28;20208;-72
2022/08/23 12:00:27;;;;;;;2.37;1.23;;;19.30;99.90;21.30;96821.00;;;;5054607;28;20199;-72
2022/08/23 12:03:25;;;;;;;3.00;1.13;;;19.40;99.90;21.50;96821.00;;;;5054663;28;20232;-72
2022/08/23 12:06:48;;;;;;;1.90;1.17;;;19.60;99.90;21.80;96823.00;;;;5050498;28;20203;-72
2022/08/23 12:09:55;;;;;;;1.00;0.90;;;19.70;99.90;22.10;96830.00;;;;5050773;28;20216;-73
2022/08/23 12:12:44;;;;;;;0.90;0.90;;;20.00;99.90;22.10;96826.00;;;;5056787;28;20226;-73
2022/08/23 12:16:11;;;;;;;2.80;1.60;;;20.20;99.90;22.50;96831.00;;;;5050172;28;20212;-73
2022/08/23 12:19:07;;;;;;;4.23;1.13;;;20.40;99.90;22.60;96825.00;;;;5054109;28;20212;-72
2022/08/23 12:21:58;;;;;;;1.20;1.10;;;20.60;99.90;22.70;96822.00;;;;5049895;28;20205;-73
2022/08/23 12:24:53;;;;;;;0.90;0.90;;;20.70;99.90;22.60;96827.00;;;;5053390;28;20207;-73
2022/08/23 12:27:46;;;;;;;1.10;1.00;;;20.90;99.90;22.50;96820.00;;;;5050067;28;20205;-73
2022/08/23 12:30:47;;;;;;;1.97;1.60;;;20.90;99.90;22.70;96824.00;;;;5052607;28;20225;-73
2022/08/23 12:33:46;;;;;;;2.10;1.30;;;21.00;99.90;22.70;96823.00;;;;5049848;28;20652;-73
2022/08/23 12:36:46;;;;;;;1.30;1.20;;;21.00;99.90;22.70;96826.00;;;;5064096;28;20579;-72
2022/08/23 12:39:40;;;;;;;1.40;1.03;;;21.00;99.90;22.50;96823.00;;;;5049654;28;20188;-73
2022/08/23 12:42:32;;;;;;;3.50;1.03;;;21.00;99.90;22.40;96810.00;;;;5056982;28;20572;-73
2022/08/23 12:45:23;;;;;;;2.33;1.23;;;20.90;99.90;22.40;96820.00;;;;5056881;28;20204;-73
2022/08/23 12:48:19;;;;;;;1.63;1.47;;;20.90;99.90;22.60;96801.00;;;;5050424;28;20599;-73
2022/08/23 12:51:12;;;;;;;1.10;1.10;;;20.90;99.90;22.80;96810.00;;;;5058972;28;20220;-73
2022/08/23 12:54:14;;;;;;;1.93;0.80;;;21.00;99.90;22.70;96803.00;;;;5060281;28;20224;-72
2022/08/23 12:57:10;;;;;;;1.40;1.10;;;21.10;99.90;22.90;96797.00;;;;5059657;28;20207;-73
2022/08/23 13:00:12;;;;;;;2.40;0.80;;;21.10;99.90;22.80;96796.00;;;;5052535;28;20200;-72
2022/08/23 13:03:07;;;;;;;4.17;1.13;;;21.10;99.90;22.90;96795.00;;;;5055403;28;20943;-73